createdAt,value
2017-11-23T00:00:58.288Z,96835.93
2017-11-23T00:02:00.964Z,96837.03
2017-11-23T00:03:03.669Z,96832.86
2017-11-23T00:04:06.362Z,96833.52
2017-11-23T00:05:09.033Z,96829.86
2017-11-23T00:06:11.981Z,96834.72
2017-11-23T00:07:14.633Z,96825.42
2017-11-23T00:08:17.302Z,96831.97
2017-11-23T00:09:19.942Z,96820.43
2017-11-23T00:10:22.597Z,96817.21
2017-11-23T00:11:25.229Z,96815.47
2017-11-23T00:12:28.183Z,96817.51
2017-11-23T00:13:30.899Z,96822.64
2017-11-23T00:14:33.667Z,96816.30
2017-11-23T00:15:36.303Z,96823.34
2017-11-23T00:16:39.018Z,96822.96
2017-11-23T00:17:41.626Z,96822.25
2017-11-23T00:18:44.646Z,96822.33
2017-11-23T00:19:47.250Z,96822.48
2017-11-23T00:20:49.860Z,96817.61
2017-11-23T00:21:52.495Z,96816.87
2017-11-23T00:22:55.183Z,96813.78
2017-11-23T00:23:57.833Z,96815.09
2017-11-23T00:25:00.740Z,96812.49
2017-11-23T00:26:03.382Z,96815.33
2017-11-23T00:27:06.031Z,96815.14
2017-11-23T00:28:08.650Z,96814.45
2017-11-23T00:29:11.426Z,96814.33
2017-11-23T00:30:14.057Z,96809.31
2017-11-23T00:31:17.017Z,96810.00
2017-11-23T00:32:19.715Z,96807.02
2017-11-23T00:33:22.365Z,96813.78
2017-11-23T00:34:25.072Z,96818.10
2017-11-23T00:35:27.788Z,96808.00
2017-11-23T00:36:30.480Z,96810.16
2017-11-23T00:37:34.120Z,96808.16
2017-11-23T00:38:36.772Z,96812.03
2017-11-23T00:39:39.419Z,96808.50
2017-11-23T00:40:42.078Z,96808.81
2017-11-23T00:41:45.763Z,96815.98
2017-11-23T00:42:48.378Z,96811.30
2017-11-23T00:43:51.434Z,96809.34
2017-11-23T00:44:54.084Z,96816.58
2017-11-23T00:45:56.881Z,96812.55
2017-11-23T00:46:59.516Z,96810.23
2017-11-23T00:48:02.125Z,96814.50
2017-11-23T00:49:04.683Z,96811.08
2017-11-23T00:50:07.530Z,96811.61
2017-11-23T00:51:10.105Z,96815.48
2017-11-23T00:52:12.648Z,96814.37
2017-11-23T00:53:15.232Z,96814.89
2017-11-23T00:54:17.773Z,96808.05
2017-11-23T00:55:20.448Z,96800.67
2017-11-23T00:56:23.467Z,96796.87
2017-11-23T00:57:26.126Z,96797.27
2017-11-23T00:58:28.788Z,96803.50
2017-11-23T00:59:31.458Z,96806.19
2017-11-23T01:00:33.962Z,96802.95
2017-11-23T01:01:36.464Z,96797.05
2017-11-23T01:02:39.330Z,96808.02
2017-11-23T01:03:41.940Z,96814.46
2017-11-23T01:04:44.534Z,96818.02
2017-11-23T01:05:47.104Z,96817.89
2017-11-23T01:06:50.552Z,96817.09
2017-11-23T01:07:53.151Z,96820.76
2017-11-23T01:08:56.014Z,96818.97
2017-11-23T01:09:58.649Z,96816.27
2017-11-23T01:11:01.302Z,96822.19
2017-11-23T01:12:03.962Z,96821.23
2017-11-23T01:13:06.626Z,96818.13
2017-11-23T01:14:09.385Z,96814.23
2017-11-23T01:15:12.294Z,96813.70
2017-11-23T01:16:14.903Z,96815.09
2017-11-23T01:17:17.567Z,96816.02
2017-11-23T01:18:20.240Z,96810.56
2017-11-23T01:19:22.948Z,96803.48
2017-11-23T01:20:25.664Z,96801.97
2017-11-23T01:21:28.609Z,96807.58
2017-11-23T01:22:36.067Z,96812.64
2017-11-23T01:23:38.644Z,96815.95
2017-11-23T01:24:41.191Z,96815.19
2017-11-23T01:25:43.839Z,96810.70
2017-11-23T01:26:46.490Z,96807.75
2017-11-23T01:27:49.423Z,96809.88
2017-11-23T01:28:52.062Z,96809.29
2017-11-23T01:29:54.700Z,96812.74
2017-11-23T01:30:57.330Z,96818.90
2017-11-23T01:31:59.974Z,96820.89
2017-11-23T01:33:02.640Z,96816.91
2017-11-23T01:34:05.619Z,96816.98
2017-11-23T01:35:08.279Z,96823.47
2017-11-23T01:36:11.303Z,96819.73
2017-11-23T01:37:14.088Z,96817.20
2017-11-23T01:38:16.736Z,96817.43
2017-11-23T01:39:19.373Z,96816.67
2017-11-23T01:40:22.051Z,96814.81
2017-11-23T01:41:24.676Z,96818.75
2017-11-23T01:42:27.351Z,96812.66
2017-11-23T01:43:30.018Z,96813.81
2017-11-23T01:44:32.701Z,96814.04
2017-11-23T01:45:35.390Z,96819.06
2017-11-23T01:46:38.382Z,96810.06
2017-11-23T01:47:41.552Z,96805.41
2017-11-23T01:48:44.310Z,96810.78
2017-11-23T01:49:46.939Z,96810.36
2017-11-23T01:50:50.481Z,96800.86
2017-11-23T01:51:53.101Z,96808.23
2017-11-23T01:52:56.022Z,96806.05
2017-11-23T01:53:58.782Z,96805.81
2017-11-23T01:55:01.456Z,96806.08
2017-11-23T01:56:04.303Z,96802.81
2017-11-23T01:57:06.993Z,96803.48
2017-11-23T01:58:09.738Z,96799.88
2017-11-23T01:59:12.762Z,96798.63
2017-11-23T02:00:15.627Z,96803.68
2017-11-23T02:01:18.298Z,96808.89
2017-11-23T02:02:21.050Z,96804.31
2017-11-23T02:03:23.698Z,96810.53
2017-11-23T02:04:26.357Z,96810.14
2017-11-23T02:05:29.265Z,96813.75
2017-11-23T02:06:31.915Z,96805.67
2017-11-23T02:07:34.548Z,96808.62
2017-11-23T02:08:37.248Z,96799.52
2017-11-23T02:09:39.817Z,96808.50
2017-11-23T02:10:42.551Z,96813.69
2017-11-23T02:11:45.560Z,96799.30
2017-11-23T02:12:48.274Z,96798.36
2017-11-23T02:13:51.020Z,96802.97
2017-11-23T02:14:53.675Z,96795.75
2017-11-23T02:15:56.340Z,96789.17
2017-11-23T02:16:59.029Z,96786.89
2017-11-23T02:18:01.992Z,96789.48
2017-11-23T02:19:04.671Z,96800.58
2017-11-23T02:20:07.353Z,96804.23
2017-11-23T02:21:10.039Z,96807.06
2017-11-23T02:22:12.771Z,96812.17
2017-11-23T02:23:15.595Z,96805.66
2017-11-23T02:24:18.655Z,96809.53
2017-11-23T02:25:21.423Z,96810.09
2017-11-23T02:26:34.820Z,96800.23
2017-11-23T02:27:37.515Z,96786.16
2017-11-23T02:28:40.192Z,96794.89
2017-11-23T02:29:42.937Z,96788.84
2017-11-23T02:30:45.911Z,96789.30
2017-11-23T02:31:48.570Z,96792.31
2017-11-23T02:32:51.226Z,96794.27
2017-11-23T02:33:53.954Z,96783.11
2017-11-23T02:34:56.705Z,96786.64
2017-11-23T02:35:59.475Z,96781.33
2017-11-23T02:37:02.520Z,96786.73
2017-11-23T02:38:05.173Z,96782.25
2017-11-23T02:39:07.917Z,96792.94
2017-11-23T02:40:10.558Z,96799.41
2017-11-23T02:41:13.245Z,96791.06
2017-11-23T02:42:15.824Z,96793.97
2017-11-23T02:43:18.715Z,96789.68
2017-11-23T02:44:21.270Z,96784.42
2017-11-23T02:45:23.830Z,96784.60
2017-11-23T02:46:26.397Z,96786.93
2017-11-23T02:47:28.946Z,96794.02
2017-11-23T02:48:31.516Z,96790.81
2017-11-23T02:49:34.486Z,96788.86
2017-11-23T02:50:37.133Z,96779.86
2017-11-23T02:51:39.755Z,96787.89
2017-11-23T02:52:42.388Z,96787.81
2017-11-23T02:53:45.062Z,96787.16
2017-11-23T02:54:47.663Z,96776.87
2017-11-23T02:55:50.593Z,96783.86
2017-11-23T02:56:53.245Z,96781.33
2017-11-23T02:57:55.963Z,96783.52
2017-11-23T02:58:58.589Z,96777.81
2017-11-23T03:00:01.275Z,96772.71
2017-11-23T03:01:03.946Z,96775.63
2017-11-23T03:02:06.925Z,96770.45
2017-11-23T03:03:09.560Z,96770.72
2017-11-23T03:04:12.373Z,96771.87
2017-11-23T03:05:15.010Z,96775.89
2017-11-23T03:06:17.799Z,96773.58
2017-11-23T03:07:20.478Z,96775.36
2017-11-23T03:08:23.532Z,96771.08
2017-11-23T03:09:26.243Z,96761.48
2017-11-23T03:10:29.041Z,96757.91
2017-11-23T03:11:31.695Z,96756.35
2017-11-23T03:12:34.358Z,96746.98
2017-11-23T03:13:37.037Z,96757.16
2017-11-23T03:14:39.723Z,96760.23
2017-11-23T03:15:42.403Z,96753.70
2017-11-23T03:16:45.078Z,96752.87
2017-11-23T03:17:47.792Z,96754.27
2017-11-23T03:18:50.428Z,96756.46
2017-11-23T03:19:53.105Z,96761.63
2017-11-23T03:20:56.313Z,96764.78
2017-11-23T03:21:59.033Z,96754.41
2017-11-23T03:23:01.797Z,96755.05
2017-11-23T03:24:04.486Z,96745.03
2017-11-23T03:25:07.166Z,96743.64
2017-11-23T03:26:09.861Z,96736.34
2017-11-23T03:27:12.811Z,96744.81
2017-11-23T03:28:15.488Z,96740.23
2017-11-23T03:29:18.154Z,96739.37
2017-11-23T03:30:20.807Z,96743.66
2017-11-23T03:31:23.467Z,96739.83
2017-11-23T03:32:26.135Z,96742.63
2017-11-23T03:33:29.111Z,96735.75
2017-11-23T03:34:31.733Z,96740.00
2017-11-23T03:35:34.407Z,96740.36
2017-11-23T03:36:37.177Z,96734.93
2017-11-23T03:37:39.841Z,96736.82
2017-11-23T03:38:42.543Z,96734.50
2017-11-23T03:39:45.548Z,96732.84
2017-11-23T03:40:48.229Z,96732.52
2017-11-23T03:41:50.915Z,96737.36
2017-11-23T03:42:53.613Z,96733.46
2017-11-23T03:43:56.332Z,96739.70
2017-11-23T03:44:59.027Z,96728.72
2017-11-23T03:46:02.192Z,96740.41
2017-11-23T03:47:05.045Z,96744.39
2017-11-23T03:48:07.800Z,96740.53
2017-11-23T03:49:10.488Z,96743.53
2017-11-23T03:50:13.876Z,96745.87
2017-11-23T03:51:16.541Z,96740.17
2017-11-23T03:52:19.881Z,96741.91
2017-11-23T03:53:22.528Z,96740.72
2017-11-23T03:54:25.130Z,96739.75
2017-11-23T03:55:27.692Z,96740.23
2017-11-23T03:56:30.273Z,96731.61
2017-11-23T03:57:32.829Z,96731.71
2017-11-23T03:58:35.941Z,96730.97
2017-11-23T03:59:38.498Z,96732.39
2017-11-23T04:00:41.056Z,96725.04
2017-11-23T04:01:43.724Z,96722.12
2017-11-23T04:02:46.450Z,96722.05
2017-11-23T04:03:49.096Z,96714.71
2017-11-23T04:04:52.136Z,96713.14
2017-11-23T04:05:54.784Z,96722.60
2017-11-23T04:06:58.458Z,96712.38
2017-11-23T04:08:01.144Z,96718.39
2017-11-23T04:09:03.942Z,96717.38
2017-11-23T04:10:06.649Z,96706.70
2017-11-23T04:11:09.676Z,96708.02
2017-11-23T04:12:12.350Z,96718.30
2017-11-23T04:13:15.023Z,96709.66
2017-11-23T04:14:17.664Z,96709.72
2017-11-23T04:15:20.386Z,96707.98
2017-11-23T04:16:23.104Z,96708.98
2017-11-23T04:17:26.040Z,96709.88
2017-11-23T04:18:28.703Z,96709.97
2017-11-23T04:19:31.475Z,96705.74
2017-11-23T04:20:34.128Z,96701.59
2017-11-23T04:21:36.781Z,96698.83
2017-11-23T04:22:39.448Z,96696.27
2017-11-23T04:23:42.605Z,96688.98
2017-11-23T04:24:46.089Z,96697.55
2017-11-23T04:25:48.740Z,96695.50
2017-11-23T04:26:51.464Z,96695.04
2017-11-23T04:27:54.252Z,96699.47
2017-11-23T04:28:57.090Z,96702.20
2017-11-23T04:30:00.164Z,96700.00
2017-11-23T04:31:02.861Z,96709.48
2017-11-23T04:32:05.550Z,96704.95
2017-11-23T04:33:08.225Z,96698.31
2017-11-23T04:34:10.751Z,96694.64
2017-11-23T04:35:13.359Z,96689.89
2017-11-23T04:36:16.308Z,96683.41
2017-11-23T04:37:18.928Z,96683.13
2017-11-23T04:38:21.576Z,96682.34
2017-11-23T04:39:24.223Z,96679.63
2017-11-23T04:40:26.826Z,96682.31
2017-11-23T04:41:29.426Z,96679.94
2017-11-23T04:42:32.549Z,96678.11
2017-11-23T04:43:35.159Z,96682.44
2017-11-23T04:44:37.753Z,96681.81
2017-11-23T04:45:40.429Z,96686.28
2017-11-23T04:46:43.077Z,96685.20
2017-11-23T04:47:45.736Z,96680.99
2017-11-23T04:48:48.661Z,96670.59
2017-11-23T04:49:51.323Z,96663.61
2017-11-23T04:50:53.968Z,96666.88
2017-11-23T04:51:56.604Z,96666.60
2017-11-23T04:52:59.250Z,96667.09
2017-11-23T04:54:01.895Z,96672.19
2017-11-23T04:55:04.827Z,96664.61
2017-11-23T04:56:07.520Z,96664.69
2017-11-23T04:57:10.178Z,96660.58
2017-11-23T04:58:12.808Z,96658.82
2017-11-23T04:59:15.481Z,96657.20
2017-11-23T05:15:24.860Z,96719.17
2017-11-23T05:16:27.605Z,96720.94
2017-11-23T05:17:30.157Z,96726.78
2017-11-23T05:18:32.769Z,96736.14
2017-11-23T05:19:35.382Z,96743.09
2017-11-23T05:20:38.139Z,96752.11
2017-11-23T05:21:40.834Z,96759.91
2017-11-23T05:22:43.621Z,96760.97
2017-11-23T05:23:46.329Z,96758.63
2017-11-23T05:24:49.341Z,96757.61
2017-11-23T05:25:52.370Z,96759.67
2017-11-23T05:26:55.076Z,96751.88
2017-11-23T05:27:57.769Z,96751.08
2017-11-23T05:29:00.426Z,96756.84
2017-11-23T05:30:03.088Z,96751.80
2017-11-23T05:31:05.785Z,96744.99
2017-11-23T05:32:08.760Z,96738.25
2017-11-23T05:33:11.451Z,96733.25
2017-11-23T05:34:14.065Z,96735.58
2017-11-23T05:35:16.726Z,96722.38
2017-11-23T05:36:19.346Z,96725.28
2017-11-23T05:37:21.964Z,96732.61
2017-11-23T05:38:25.006Z,96731.27
2017-11-23T05:39:27.660Z,96730.38
2017-11-23T05:40:30.291Z,96735.77
2017-11-23T05:41:32.960Z,96730.28
2017-11-23T05:42:35.968Z,96731.70
2017-11-23T05:43:38.647Z,96734.58
2017-11-23T05:44:41.570Z,96734.42
2017-11-23T05:45:44.267Z,96732.91
2017-11-23T05:46:46.898Z,96744.50
2017-11-23T05:47:49.589Z,96739.56
2017-11-23T05:48:52.268Z,96734.63
2017-11-23T05:49:54.921Z,96734.89
2017-11-23T05:50:57.868Z,96722.45
2017-11-23T05:52:00.521Z,96729.48
2017-11-23T05:53:04.168Z,96729.03
2017-11-23T05:54:06.895Z,96718.08
2017-11-23T05:55:09.580Z,96717.41
2017-11-23T05:56:12.233Z,96728.86
2017-11-23T05:57:15.201Z,96716.02
2017-11-23T05:58:17.837Z,96714.44
2017-11-23T05:59:20.482Z,96710.80
2017-11-23T06:00:23.098Z,96711.23
2017-11-23T06:01:25.874Z,96704.42
2017-11-23T06:02:28.517Z,96708.43
2017-11-23T06:03:31.659Z,96710.84
2017-11-23T06:04:34.376Z,96714.22
2017-11-23T06:05:37.078Z,96717.41
2017-11-23T06:06:39.638Z,96716.11
2017-11-23T06:07:42.186Z,96721.00
2017-11-23T06:08:44.795Z,96718.98
2017-11-23T06:09:47.709Z,96721.40
2017-11-23T06:10:50.270Z,96719.58
2017-11-23T06:11:53.139Z,96715.44
2017-11-23T06:12:55.791Z,96721.06
2017-11-23T06:13:58.478Z,96729.85
2017-11-23T06:15:01.283Z,96730.30
2017-11-23T06:16:04.302Z,96721.69
2017-11-23T06:17:06.987Z,96732.16
2017-11-23T06:18:09.940Z,96733.89
2017-11-23T06:19:12.596Z,96729.77
2017-11-23T06:20:15.413Z,96727.64
2017-11-23T06:21:18.149Z,96729.91
2017-11-23T06:22:21.187Z,96726.95
2017-11-23T06:23:23.865Z,96720.22
2017-11-23T06:24:26.565Z,96728.88
2017-11-23T06:25:29.152Z,96730.14
2017-11-23T06:26:31.728Z,96732.91
2017-11-23T06:27:34.383Z,96735.78
2017-11-23T06:28:37.596Z,96734.00
2017-11-23T06:29:40.306Z,96725.72
2017-11-23T06:30:43.031Z,96730.94
2017-11-23T06:31:45.774Z,96729.09
2017-11-23T06:32:48.415Z,96725.38
2017-11-23T06:33:51.124Z,96726.69
2017-11-23T06:34:54.105Z,96738.08
2017-11-23T06:35:56.799Z,96743.55
2017-11-23T06:36:59.477Z,96750.70
2017-11-23T06:38:02.224Z,96746.69
2017-11-23T06:39:04.908Z,96743.05
2017-11-23T06:40:07.689Z,96733.18
2017-11-23T06:41:10.844Z,96728.37
2017-11-23T06:42:13.500Z,96741.09
2017-11-23T06:43:16.216Z,96728.81
2017-11-23T06:44:18.932Z,96721.29
2017-11-23T06:45:21.676Z,96729.34
2017-11-23T06:46:24.462Z,96737.85
2017-11-23T06:47:27.986Z,96737.28
2017-11-23T06:48:30.765Z,96739.48
2017-11-23T06:49:33.570Z,96735.65
2017-11-23T06:50:36.254Z,96742.86
2017-11-23T06:51:38.988Z,96744.69
2017-11-23T06:52:41.651Z,96745.23
2017-11-23T06:53:44.666Z,96738.80
2017-11-23T06:54:47.534Z,96730.44
2017-11-23T06:55:50.264Z,96738.29
2017-11-23T06:56:52.928Z,96731.59
2017-11-23T06:57:55.630Z,96731.11
2017-11-23T06:58:58.279Z,96728.22
2017-11-23T07:00:01.276Z,96737.05
2017-11-23T07:01:03.992Z,96726.68
2017-11-23T07:02:06.663Z,96730.89
2017-11-23T07:03:09.319Z,96734.57
2017-11-23T07:04:11.974Z,96719.48
2017-11-23T07:05:14.631Z,96726.53
2017-11-23T07:06:17.808Z,96726.44
2017-11-23T07:07:20.646Z,96719.45
2017-11-23T07:08:23.498Z,96723.31
2017-11-23T07:09:26.106Z,96720.05
2017-11-23T07:10:28.787Z,96708.89
2017-11-23T07:11:31.591Z,96711.30
2017-11-23T07:12:34.623Z,96708.92
2017-11-23T07:13:37.302Z,96706.24
2017-11-23T07:14:40.041Z,96710.53
2017-11-23T07:15:42.881Z,96699.03
2017-11-23T07:16:45.562Z,96704.58
2017-11-23T07:17:52.221Z,96703.45
2017-11-23T07:18:54.954Z,96711.84
2017-11-23T07:19:57.662Z,96715.64
2017-11-23T07:21:00.432Z,96711.50
2017-11-23T07:22:03.037Z,96718.95
2017-11-23T07:23:05.726Z,96711.69
2017-11-23T07:24:08.893Z,96718.02
2017-11-23T07:25:11.603Z,96735.07
2017-11-23T07:26:14.332Z,96737.59
2017-11-23T07:27:16.989Z,96735.09
2017-11-23T07:28:19.930Z,96730.42
2017-11-23T07:29:22.583Z,96728.08
2017-11-23T07:30:25.677Z,96730.27
2017-11-23T07:31:28.343Z,96739.27
2017-11-23T07:32:31.024Z,96722.12
2017-11-23T07:33:33.686Z,96735.92
2017-11-23T07:34:37.312Z,96750.20
2017-11-23T07:35:39.976Z,96748.75
2017-11-23T07:36:42.610Z,96731.23
2017-11-23T07:37:45.260Z,96736.59
2017-11-23T07:38:47.930Z,96737.11
2017-11-23T07:39:50.595Z,96744.86
2017-11-23T07:40:53.278Z,96753.15
2017-11-23T07:41:55.928Z,96755.84
2017-11-23T07:42:58.989Z,96780.25
2017-11-23T07:44:01.635Z,96743.92
2017-11-23T07:45:04.304Z,96736.02
2017-11-23T07:46:06.959Z,96760.66
2017-11-23T07:47:09.637Z,96743.41
2017-11-23T07:48:12.236Z,96742.77
2017-11-23T07:49:15.317Z,96781.25
2017-11-23T07:50:17.980Z,96744.38
2017-11-23T07:51:20.616Z,96760.75
2017-11-23T07:52:23.232Z,96766.89
2017-11-23T07:53:25.885Z,96755.88
2017-11-23T07:54:28.534Z,96749.51
2017-11-23T07:55:31.511Z,96749.59
2017-11-23T07:56:34.251Z,96755.53
2017-11-23T07:57:36.929Z,96752.13
2017-11-23T07:58:39.611Z,96738.63
2017-11-23T07:59:42.283Z,96746.27
2017-11-23T08:00:44.931Z,96751.56
2017-11-23T08:01:47.948Z,96776.02
2017-11-23T08:02:50.613Z,96745.64
2017-11-23T08:03:53.295Z,96736.72
2017-11-23T08:04:55.959Z,96742.27
2017-11-23T08:05:58.596Z,96771.91
2017-11-23T08:07:01.407Z,96751.81
2017-11-23T08:08:04.475Z,96751.88
2017-11-23T08:09:08.035Z,96782.06
2017-11-23T08:10:11.701Z,96751.47
2017-11-23T08:11:15.826Z,96747.80
2017-11-23T08:12:18.851Z,96755.02
2017-11-23T08:13:22.145Z,96773.55
2017-11-23T08:14:26.228Z,96767.19
2017-11-23T08:15:28.975Z,96760.16
2017-11-23T08:16:31.675Z,96781.23
2017-11-23T08:17:34.549Z,96792.11
2017-11-23T08:18:37.295Z,96772.12
2017-11-23T08:19:39.872Z,96781.17
2017-11-23T08:20:42.800Z,96771.57
2017-11-23T08:21:45.417Z,96773.69
2017-11-23T08:22:48.064Z,96767.44
2017-11-23T08:23:50.808Z,96774.38
2017-11-23T08:24:53.490Z,96760.40
2017-11-23T08:25:56.209Z,96788.33
2017-11-23T08:26:59.282Z,96802.77
2017-11-23T08:28:02.652Z,96803.83
2017-11-23T08:29:05.420Z,96796.14
2017-11-23T08:30:08.379Z,96812.82
2017-11-23T08:31:11.074Z,96830.84
2017-11-23T08:32:13.949Z,96821.23
2017-11-23T08:33:17.227Z,96805.42
2017-11-23T08:34:19.895Z,96792.34
2017-11-23T08:35:22.642Z,96808.73
2017-11-23T08:36:25.298Z,96812.52
2017-11-23T08:37:28.092Z,96810.58
2017-11-23T08:38:30.863Z,96803.40
2017-11-23T08:39:33.991Z,96812.79
2017-11-23T08:40:36.716Z,96821.91
2017-11-23T08:41:39.387Z,96791.87
2017-11-23T08:42:42.127Z,96808.14
2017-11-23T08:43:44.781Z,96823.92
2017-11-23T08:44:47.459Z,96816.02
2017-11-23T08:45:50.643Z,96799.87
2017-11-23T08:46:53.282Z,96791.61
2017-11-23T08:47:55.897Z,96806.70
2017-11-23T08:48:58.586Z,96797.34
2017-11-23T08:50:01.287Z,96805.30
2017-11-23T08:51:03.896Z,96808.52
2017-11-23T08:52:07.032Z,96795.45
2017-11-23T08:53:09.653Z,96821.87
2017-11-23T08:54:12.339Z,96794.95
2017-11-23T08:55:15.882Z,96790.41
2017-11-23T08:56:20.439Z,96807.80
2017-11-23T08:57:23.094Z,96796.34
2017-11-23T08:58:26.221Z,96817.38
2017-11-23T08:59:28.878Z,96794.02
2017-11-23T09:00:31.552Z,96827.56
2017-11-23T09:01:34.190Z,96802.70
2017-11-23T09:02:36.936Z,96814.55
2017-11-23T09:03:39.778Z,96796.95
2017-11-23T09:04:42.807Z,96830.98
2017-11-23T09:05:45.505Z,96810.13
2017-11-23T09:06:48.310Z,96803.85
2017-11-23T09:07:52.302Z,96825.08
2017-11-23T09:08:55.162Z,96784.72
2017-11-23T09:09:58.317Z,96796.14
2017-11-23T09:11:01.189Z,96794.48
2017-11-23T09:12:03.920Z,96790.84
2017-11-23T09:13:09.589Z,96799.13
2017-11-23T09:14:12.274Z,96804.59
2017-11-23T09:15:15.000Z,96781.01
2017-11-23T09:16:17.614Z,96786.93
2017-11-23T09:17:21.484Z,96792.07
2017-11-23T09:18:24.205Z,96784.05
2017-11-23T09:19:26.839Z,96787.61
2017-11-23T09:20:29.620Z,96772.33
2017-11-23T09:21:32.310Z,96781.09
2017-11-23T09:22:35.043Z,96802.23
2017-11-23T09:23:38.060Z,96784.05
2017-11-23T09:24:40.765Z,96790.50
2017-11-23T09:25:43.463Z,96795.52
2017-11-23T09:26:46.175Z,96791.02
2017-11-23T09:27:49.738Z,96777.70
2017-11-23T09:28:52.483Z,96789.39
2017-11-23T09:29:55.756Z,96783.78
2017-11-23T09:30:58.630Z,96794.80
2017-11-23T09:32:01.534Z,96798.59
2017-11-23T09:33:04.196Z,96792.11
2017-11-23T09:34:06.989Z,96785.05
2017-11-23T09:35:09.672Z,96795.28
2017-11-23T09:36:12.871Z,96779.35
2017-11-23T09:37:15.559Z,96786.66
2017-11-23T09:38:18.419Z,96789.55
2017-11-23T09:39:21.153Z,96781.56
2017-11-23T09:40:23.917Z,96820.52
2017-11-23T09:41:26.612Z,96803.34
2017-11-23T09:42:29.741Z,96811.80
2017-11-23T09:43:32.413Z,96827.69
2017-11-23T09:44:35.066Z,96804.52
2017-11-23T09:45:37.753Z,96823.92
2017-11-23T09:46:40.398Z,96804.55
2017-11-23T09:47:43.053Z,96786.26
2017-11-23T09:48:47.451Z,96801.27
2017-11-23T09:49:50.147Z,96805.81
2017-11-23T09:50:52.993Z,96802.25
2017-11-23T09:51:55.668Z,96801.97
2017-11-23T09:52:58.611Z,96810.25
2017-11-23T09:54:01.326Z,96811.91
2017-11-23T09:55:04.472Z,96795.30
2017-11-23T09:56:07.163Z,96794.76
2017-11-23T09:57:09.849Z,96799.34
2017-11-23T09:58:12.613Z,96800.39
2017-11-23T09:59:15.288Z,96806.56
2017-11-23T10:00:17.978Z,96814.16
2017-11-23T10:01:20.996Z,96802.24
2017-11-23T10:02:24.031Z,96793.95
2017-11-23T10:03:26.737Z,96803.00
2017-11-23T10:04:29.388Z,96793.61
2017-11-23T10:05:32.114Z,96805.93
2017-11-23T10:06:34.910Z,96793.03
2017-11-23T10:07:37.642Z,96799.45
2017-11-23T10:08:40.336Z,96793.30
2017-11-23T10:09:44.105Z,96799.19
2017-11-23T10:10:47.020Z,96791.54
2017-11-23T10:11:49.697Z,96803.30
2017-11-23T10:12:52.348Z,96789.14
2017-11-23T10:13:55.054Z,96809.64
2017-11-23T10:14:57.794Z,96810.70
2017-11-23T10:16:00.515Z,96785.41
2017-11-23T10:17:03.281Z,96792.03
2017-11-23T10:18:06.273Z,96794.17
2017-11-23T10:19:08.969Z,96802.77
2017-11-23T10:20:11.691Z,96776.85
2017-11-23T10:21:14.476Z,96788.27
2017-11-23T10:22:17.177Z,96772.46
2017-11-23T10:23:19.853Z,96766.55
2017-11-23T10:24:22.962Z,96786.44
2017-11-23T10:25:25.692Z,96756.34
2017-11-23T10:26:28.418Z,96780.33
2017-11-23T10:27:31.215Z,96758.52
2017-11-23T10:28:33.903Z,96793.24
2017-11-23T10:29:36.618Z,96782.64
2017-11-23T10:30:39.764Z,96785.13
2017-11-23T10:31:42.464Z,96770.81
2017-11-23T10:32:45.171Z,96789.28
2017-11-23T10:33:47.850Z,96805.24
2017-11-23T10:34:50.544Z,96798.05
2017-11-23T10:35:53.284Z,96790.77
2017-11-23T10:36:56.615Z,96795.84
2017-11-23T10:37:59.341Z,96795.32
2017-11-23T10:39:02.113Z,96787.02
2017-11-23T10:40:04.789Z,96795.71
2017-11-23T10:41:08.915Z,96790.96
2017-11-23T10:42:11.774Z,96775.06
2017-11-23T10:43:15.024Z,96808.22
2017-11-23T10:44:17.832Z,96808.09
2017-11-23T10:45:20.502Z,96797.54
2017-11-23T10:46:23.176Z,96824.99
2017-11-23T10:47:25.918Z,96812.80
2017-11-23T10:48:28.685Z,96789.70
2017-11-23T10:49:31.717Z,96814.27
2017-11-23T10:50:35.251Z,96810.00
2017-11-23T10:51:37.921Z,96796.83
2017-11-23T10:52:40.629Z,96807.00
2017-11-23T10:53:43.275Z,96806.33
2017-11-23T10:54:45.990Z,96824.32
2017-11-23T10:55:49.927Z,96809.83
2017-11-23T10:56:54.627Z,96812.96
2017-11-23T10:57:59.623Z,96823.80
2017-11-23T10:59:03.315Z,96834.37
2017-11-23T11:15:36.794Z,96836.17
2017-11-23T11:16:39.536Z,96812.02
2017-11-23T11:17:42.102Z,96806.60
2017-11-23T11:18:44.855Z,96827.77
2017-11-23T11:19:47.536Z,96809.25
2017-11-23T11:20:50.608Z,96816.02
2017-11-23T11:21:53.266Z,96800.45
2017-11-23T11:22:56.464Z,96794.44
2017-11-23T11:23:59.176Z,96817.05
2017-11-23T11:25:01.900Z,96816.50
2017-11-23T11:26:04.635Z,96807.63
2017-11-23T11:27:07.792Z,96812.45
2017-11-23T11:28:10.460Z,96826.31
2017-11-23T11:29:13.139Z,96825.23
2017-11-23T11:30:15.869Z,96816.55
2017-11-23T11:34:59.063Z,96824.82
2017-11-23T11:36:02.281Z,96821.97
2017-11-23T11:37:04.998Z,96842.91
2017-11-23T11:38:07.685Z,96821.77
2017-11-23T11:39:10.376Z,96806.02
2017-11-23T11:40:13.260Z,96850.04
2017-11-23T11:41:16.379Z,96839.03
2017-11-23T11:42:19.585Z,96820.38
2017-11-23T11:43:22.262Z,96832.97
2017-11-23T11:44:25.080Z,96824.91
2017-11-23T11:45:27.755Z,96847.85
2017-11-23T11:46:30.538Z,96808.77
2017-11-23T11:47:33.788Z,96824.90
2017-11-23T11:48:36.450Z,96805.59
2017-11-23T11:49:40.029Z,96833.89
2017-11-23T11:50:42.918Z,96814.58
2017-11-23T11:51:45.659Z,96809.25
2017-11-23T11:52:48.383Z,96813.92
2017-11-23T11:53:51.599Z,96852.34
2017-11-23T11:54:54.316Z,96822.45
2017-11-23T11:55:57.030Z,96815.28
2017-11-23T11:56:59.697Z,96816.22
2017-11-23T11:58:02.395Z,96835.01
2017-11-23T11:59:05.175Z,96841.88
2017-11-23T12:00:08.170Z,96827.95
2017-11-23T12:01:10.727Z,96836.44
2017-11-23T12:02:13.324Z,96839.39
2017-11-23T12:03:15.949Z,96832.02
2017-11-23T12:04:19.505Z,96828.41
2017-11-23T12:05:22.064Z,96812.81
2017-11-23T12:06:26.349Z,96827.97
2017-11-23T12:07:29.084Z,96818.16
2017-11-23T12:08:31.853Z,96814.56
2017-11-23T12:09:34.565Z,96851.42
2017-11-23T12:10:37.361Z,96841.97
2017-11-23T12:11:40.099Z,96836.36
2017-11-23T12:12:43.396Z,96819.39
2017-11-23T12:13:46.072Z,96808.68
2017-11-23T12:14:48.839Z,96820.86
2017-11-23T12:15:51.555Z,96823.39
2017-11-23T12:16:54.814Z,96855.05
2017-11-23T12:17:57.712Z,96817.20
2017-11-23T12:19:00.966Z,96847.04
2017-11-23T12:20:03.853Z,96823.88
2017-11-23T12:21:06.731Z,96819.92
2017-11-23T12:22:09.575Z,96825.82
2017-11-23T12:23:12.372Z,96837.03
2017-11-23T12:24:15.363Z,96843.80
2017-11-23T12:25:18.415Z,96835.30
2017-11-23T12:26:21.084Z,96840.24
2017-11-23T12:27:23.739Z,96838.83
2017-11-23T12:28:26.508Z,96836.96
2017-11-23T12:29:29.216Z,96847.85
2017-11-23T12:30:31.986Z,96848.06
2017-11-23T12:31:35.060Z,96840.00
2017-11-23T12:32:38.722Z,96813.45
2017-11-23T12:33:41.601Z,96843.83
2017-11-23T12:34:44.310Z,96852.70
2017-11-23T12:35:47.031Z,96827.73
2017-11-23T12:36:50.314Z,96843.01
2017-11-23T12:37:53.493Z,96839.81
2017-11-23T12:38:56.753Z,96832.70
2017-11-23T12:39:59.619Z,96829.38
2017-11-23T12:41:02.268Z,96845.80
2017-11-23T12:42:05.103Z,96831.09
2017-11-23T12:43:08.749Z,96845.05
2017-11-23T12:44:12.026Z,96834.80
2017-11-23T12:45:14.685Z,96851.22
2017-11-23T12:46:17.452Z,96842.70
2017-11-23T12:47:20.156Z,96845.19
2017-11-23T12:48:22.767Z,96850.84
2017-11-23T12:49:25.487Z,96842.47
2017-11-23T12:50:28.580Z,96843.45
2017-11-23T12:51:31.482Z,96838.08
2017-11-23T12:52:34.130Z,96863.86